createdAt,value
2018-04-01T00:00:11.051Z,58.00
2018-04-01T00:01:14.189Z,57.50
2018-04-01T00:02:17.392Z,54.00
2018-04-01T00:03:20.614Z,54.50
2018-04-01T00:04:23.807Z,54.00
2018-04-01T00:05:26.992Z,48.50
2018-04-01T00:06:30.548Z,52.50
2018-04-01T00:07:33.571Z,53.00
2018-04-01T00:08:36.627Z,54.00
2018-04-01T00:09:39.994Z,52.50
2018-04-01T00:10:44.266Z,54.00
2018-04-01T00:11:47.504Z,47.50
2018-04-01T00:12:50.802Z,41.50
2018-04-01T00:13:54.683Z,51.50
2018-04-01T00:14:57.849Z,52.00
2018-04-01T00:16:01.592Z,47.50
2018-04-01T00:17:05.917Z,56.00
2018-04-01T00:18:08.976Z,48.50
2018-04-01T00:19:12.394Z,44.00
2018-04-01T00:20:15.655Z,50.50
2018-04-01T00:21:18.892Z,52.00
2018-04-01T00:22:22.003Z,52.00
2018-04-01T00:23:25.114Z,54.00
2018-04-01T00:24:28.148Z,52.00
2018-04-01T00:25:31.225Z,48.00
2018-04-01T00:26:34.387Z,49.00
2018-04-01T00:27:37.424Z,43.50
2018-04-01T00:28:40.475Z,51.50
2018-04-01T00:29:44.635Z,52.50
2018-04-01T00:30:49.262Z,56.50
2018-04-01T00:31:53.679Z,53.50
2018-04-01T00:32:56.831Z,49.00
2018-04-01T00:33:59.919Z,53.00
2018-04-01T00:35:03.093Z,52.00
2018-04-01T00:36:06.381Z,52.00
2018-04-01T00:37:09.381Z,52.50
2018-04-01T00:38:12.864Z,55.00
2018-04-01T00:39:15.975Z,55.50
2018-04-01T00:40:19.138Z,58.50
2018-04-01T00:41:22.435Z,55.50
2018-04-01T00:42:25.635Z,54.50
2018-04-01T00:43:28.868Z,55.00
2018-04-01T00:44:32.374Z,56.00
2018-04-01T00:45:35.775Z,56.50
2018-04-01T00:46:38.939Z,50.00
2018-04-01T00:47:42.165Z,52.00
2018-04-01T00:48:46.456Z,48.50
2018-04-01T00:49:50.341Z,51.00
2018-04-01T00:50:53.584Z,49.00
2018-04-01T00:51:56.770Z,55.00
2018-04-01T00:52:59.999Z,52.00
2018-04-01T00:54:03.136Z,55.00
2018-04-01T00:55:06.246Z,53.50
2018-04-01T00:56:09.342Z,53.00
2018-04-01T00:57:12.425Z,56.00
2018-04-01T00:58:15.623Z,57.50
2018-04-01T00:59:18.810Z,53.50
2018-04-01T01:00:22.624Z,51.50
2018-04-01T01:01:25.952Z,51.00
2018-04-01T01:02:29.650Z,55.00
2018-04-01T01:03:32.976Z,52.00
2018-04-01T01:04:36.215Z,55.50
2018-04-01T01:05:39.596Z,54.00
2018-04-01T01:06:43.185Z,57.00
2018-04-01T01:07:46.478Z,54.00
2018-04-01T01:08:50.670Z,53.50
2018-04-01T01:09:53.884Z,54.50
2018-04-01T01:10:57.170Z,52.50
2018-04-01T01:12:00.435Z,55.50
2018-04-01T01:13:04.156Z,53.00
2018-04-01T01:14:07.758Z,56.50
2018-04-01T01:15:12.678Z,58.50
2018-04-01T01:16:15.943Z,57.50
2018-04-01T01:17:19.053Z,57.00
2018-04-01T01:18:22.563Z,60.00
2018-04-01T01:19:25.697Z,50.50
2018-04-01T01:20:29.012Z,51.00
2018-04-01T01:21:32.133Z,56.50
2018-04-01T01:22:35.462Z,55.00
2018-04-01T01:23:38.685Z,60.00
2018-04-01T01:24:41.894Z,60.00
2018-04-01T01:25:46.016Z,60.00
2018-04-01T01:26:49.166Z,60.00
2018-04-01T01:27:53.022Z,62.00
2018-04-01T01:28:56.287Z,62.50
2018-04-01T01:29:59.138Z,63.50
2018-04-01T01:31:02.319Z,65.00
2018-04-01T01:32:05.580Z,61.00
2018-04-01T01:33:09.008Z,66.00
2018-04-01T01:34:12.025Z,66.50
2018-04-01T01:35:15.622Z,66.00
2018-04-01T01:36:18.797Z,62.00
2018-04-01T01:37:22.218Z,62.00
2018-04-01T01:38:25.504Z,67.00
2018-04-01T01:39:28.780Z,65.50
2018-04-01T01:40:31.752Z,58.50
2018-04-01T01:41:35.026Z,67.00
2018-04-01T01:42:38.175Z,59.50
2018-04-01T01:43:41.728Z,59.00
2018-04-01T01:44:44.791Z,60.50
2018-04-01T01:45:49.363Z,61.50
2018-04-01T01:46:52.742Z,58.00
2018-04-01T01:47:55.802Z,62.00
2018-04-01T01:48:58.713Z,62.00
2018-04-01T01:50:01.943Z,61.00
2018-04-01T01:51:04.811Z,59.50
2018-04-01T01:52:07.825Z,58.50
2018-04-01T01:53:10.683Z,62.50
2018-04-01T01:54:13.852Z,60.50
2018-04-01T01:55:16.948Z,56.50
2018-04-01T01:56:20.211Z,59.50
2018-04-01T01:57:23.816Z,60.00
2018-04-01T01:58:27.109Z,61.00
2018-04-01T01:59:30.328Z,60.00
2018-04-01T02:00:33.397Z,60.50
2018-04-01T02:01:36.445Z,60.00
2018-04-01T02:02:39.974Z,62.00
2018-04-01T02:03:43.286Z,58.50
2018-04-01T02:04:46.495Z,61.50
2018-04-01T02:05:49.778Z,62.50
2018-04-01T02:06:53.745Z,57.50
2018-04-01T02:07:56.854Z,59.50
2018-04-01T02:09:00.883Z,66.50
2018-04-01T02:10:03.898Z,67.50
2018-04-01T02:11:06.927Z,57.00
2018-04-01T02:12:10.103Z,56.00
2018-04-01T02:13:13.079Z,58.50
2018-04-01T02:14:16.084Z,62.50
2018-04-01T02:15:19.833Z,65.00
2018-04-01T02:16:22.875Z,62.00
2018-04-01T02:17:26.378Z,62.00
2018-04-01T02:18:29.514Z,63.00
2018-04-01T02:19:32.317Z,62.00
2018-04-01T02:20:35.113Z,61.00
2018-04-01T02:21:38.112Z,62.00
2018-04-01T02:22:41.158Z,60.50
2018-04-01T02:23:44.457Z,58.50
2018-04-01T02:24:47.288Z,60.00
2018-04-01T02:25:50.126Z,59.00
2018-04-01T02:26:53.178Z,60.00
2018-04-01T02:27:57.422Z,62.00
2018-04-01T02:29:00.650Z,57.50
2018-04-01T02:30:04.841Z,60.50
2018-04-01T02:31:08.315Z,62.00
2018-04-01T02:32:11.285Z,49.00
2018-04-01T02:33:14.388Z,56.00
2018-04-01T02:34:17.901Z,58.50
2018-04-01T02:35:20.898Z,51.50
2018-04-01T02:36:23.756Z,58.50
2018-04-01T02:37:27.092Z,57.50
2018-04-01T02:38:30.548Z,62.00
2018-04-01T02:39:34.421Z,65.00
2018-04-01T02:40:37.935Z,61.50
2018-04-01T02:41:40.854Z,60.50
2018-04-01T02:42:44.007Z,59.50
2018-04-01T02:43:47.026Z,57.50
2018-04-01T02:44:51.114Z,59.50
2018-04-01T02:45:54.436Z,51.00
2018-04-01T02:46:58.686Z,56.00
2018-04-01T02:48:02.083Z,53.50
2018-04-01T02:49:05.157Z,45.00
2018-04-01T02:50:08.678Z,43.00
2018-04-01T02:51:12.391Z,47.50
2018-04-01T02:52:15.792Z,51.50
2018-04-01T02:53:18.815Z,47.00
2018-04-01T02:54:21.994Z,46.50
2018-04-01T02:55:25.092Z,47.00
2018-04-01T02:56:28.423Z,45.50
2018-04-01T02:57:31.306Z,48.00
2018-04-01T02:58:34.707Z,46.00
2018-04-01T02:59:37.667Z,50.50
2018-04-01T03:00:41.285Z,53.00
2018-04-01T03:01:44.530Z,36.50
2018-04-01T03:02:47.480Z,45.50
2018-04-01T03:03:50.308Z,41.00
2018-04-01T03:04:53.503Z,40.00
2018-04-01T03:05:56.524Z,41.00
2018-04-01T03:06:59.581Z,44.50
2018-04-01T03:08:03.303Z,44.50
2018-04-01T03:09:06.089Z,40.50
2018-04-01T03:10:08.959Z,42.00
2018-04-01T03:11:11.781Z,27.50
2018-04-01T03:12:14.852Z,35.50
2018-04-01T03:13:17.996Z,37.00
2018-04-01T03:14:20.998Z,28.00
2018-04-01T03:15:24.371Z,30.50
2018-04-01T03:16:27.338Z,25.00
2018-04-01T03:17:30.204Z,29.00
2018-04-01T03:18:33.290Z,27.00
2018-04-01T03:19:35.967Z,30.00
2018-04-01T03:20:39.251Z,32.50
2018-04-01T03:21:42.457Z,33.50
2018-04-01T03:22:46.431Z,40.50
2018-04-01T03:23:49.567Z,36.50
2018-04-01T03:24:52.322Z,32.00
2018-04-01T03:25:55.408Z,40.00
2018-04-01T03:26:58.600Z,41.50
2018-04-01T03:28:01.768Z,42.50
2018-04-01T03:29:05.064Z,39.50
2018-04-01T03:30:08.180Z,56.00
2018-04-01T03:31:11.092Z,39.00
2018-04-01T03:32:14.382Z,33.50
2018-04-01T03:33:18.363Z,38.50
2018-04-01T03:34:22.095Z,35.00
2018-04-01T03:35:25.337Z,29.50
2018-04-01T03:36:28.267Z,29.00
2018-04-01T03:37:31.171Z,31.00
2018-04-01T03:38:33.941Z,32.00
2018-04-01T03:39:37.083Z,32.00
2018-04-01T03:40:39.884Z,32.50
2018-04-01T03:41:42.758Z,34.50
2018-04-01T03:42:45.676Z,28.00
2018-04-01T03:43:48.599Z,36.00
2018-04-01T03:44:51.446Z,33.00
2018-04-01T03:45:54.496Z,30.00
2018-04-01T03:46:57.387Z,33.50
2018-04-01T03:48:00.125Z,38.00
2018-04-01T03:49:03.237Z,31.50
2018-04-01T03:50:06.904Z,31.00
2018-04-01T03:51:09.594Z,24.50
2018-04-01T03:52:12.369Z,30.00
2018-04-01T03:53:16.607Z,38.00
2018-04-01T03:54:20.222Z,28.50
2018-04-01T03:55:22.940Z,32.00
2018-04-01T03:56:25.927Z,32.50
2018-04-01T03:57:28.877Z,30.00
2018-04-01T03:58:31.591Z,31.50
2018-04-01T03:59:34.733Z,32.50
2018-04-01T04:00:37.676Z,30.00
2018-04-01T04:01:40.551Z,30.50
2018-04-01T04:02:43.438Z,35.50
2018-04-01T04:03:46.329Z,29.00
2018-04-01T04:04:49.384Z,25.00
2018-04-01T04:05:52.737Z,27.00
2018-04-01T04:06:55.693Z,26.50
2018-04-01T04:07:58.907Z,30.50
2018-04-01T04:09:01.836Z,23.50
2018-04-01T04:10:04.851Z,39.00
2018-04-01T04:11:08.080Z,34.00
2018-04-01T04:12:11.355Z,28.50
2018-04-01T04:13:14.740Z,35.00
2018-04-01T04:14:17.452Z,25.00
2018-04-01T04:15:20.410Z,29.50
2018-04-01T04:16:23.403Z,34.50
2018-04-01T04:17:26.755Z,26.50
2018-04-01T04:18:29.761Z,23.00
2018-04-01T04:19:32.563Z,30.00
2018-04-01T04:20:35.661Z,36.50
2018-04-01T04:21:38.632Z,32.50
2018-04-01T04:22:41.535Z,28.00
2018-04-01T04:23:44.599Z,29.00
2018-04-01T04:24:47.862Z,20.00
2018-04-01T04:25:50.824Z,32.50
2018-04-01T04:26:53.573Z,19.00
2018-04-01T04:27:57.383Z,29.00
2018-04-01T04:29:00.093Z,26.50
2018-04-01T04:30:04.411Z,24.50
2018-04-01T04:31:07.891Z,27.50
2018-04-01T04:32:11.290Z,31.00
2018-04-01T04:33:14.353Z,30.00
2018-04-01T04:34:17.035Z,30.00
2018-04-01T04:35:19.840Z,20.50
2018-04-01T04:36:22.588Z,24.50
2018-04-01T04:37:26.206Z,27.50
2018-04-01T04:38:28.997Z,28.00
2018-04-01T04:39:31.833Z,19.50
2018-04-01T04:40:34.604Z,20.00
2018-04-01T04:41:37.305Z,26.00
2018-04-01T04:42:40.066Z,25.00
2018-04-01T04:43:43.117Z,30.00
2018-04-01T04:44:45.891Z,25.50
2018-04-01T04:45:48.802Z,24.50
2018-04-01T04:46:51.865Z,26.50
2018-04-01T04:47:54.982Z,34.00
2018-04-01T04:48:57.677Z,26.00
2018-04-01T04:50:00.650Z,23.50
2018-04-01T04:51:03.486Z,24.50
2018-04-01T04:52:06.194Z,17.50
2018-04-01T04:53:08.902Z,26.50
2018-04-01T04:54:11.843Z,25.00
2018-04-01T04:55:15.001Z,28.50
2018-04-01T04:56:18.045Z,23.50
2018-04-01T04:57:20.894Z,23.50
2018-04-01T04:58:23.656Z,23.00
2018-04-01T04:59:26.501Z,23.50
2018-04-01T05:00:29.354Z,25.50
2018-04-01T05:01:32.096Z,22.00
2018-04-01T05:02:34.832Z,23.50
2018-04-01T05:03:37.592Z,22.50
2018-04-01T05:04:40.370Z,22.00
2018-04-01T05:05:43.128Z,28.00
2018-04-01T05:06:45.869Z,24.00
2018-04-01T05:07:48.657Z,22.50
2018-04-01T05:08:51.774Z,24.50
2018-04-01T05:09:54.623Z,16.50
2018-04-01T05:10:57.400Z,18.50
2018-04-01T05:12:00.205Z,20.00
2018-04-01T05:13:03.213Z,21.00
2018-04-01T05:14:06.271Z,21.00
2018-04-01T05:15:09.508Z,29.50
2018-04-01T05:16:12.564Z,31.00
2018-04-01T05:17:15.940Z,29.50
2018-04-01T05:18:18.766Z,25.50
2018-04-01T05:19:21.556Z,22.00
2018-04-01T05:20:24.381Z,25.50
2018-04-01T05:21:27.573Z,26.00
2018-04-01T05:22:30.468Z,19.50
2018-04-01T05:23:33.294Z,20.00
2018-04-01T05:24:36.031Z,24.00
2018-04-01T05:25:38.811Z,23.00
2018-04-01T05:26:41.650Z,20.00
2018-04-01T05:27:44.703Z,19.00
2018-04-01T05:28:47.822Z,21.50
2018-04-01T05:29:50.501Z,20.50
2018-04-01T05:30:53.638Z,22.00
2018-04-01T05:31:56.778Z,24.00
2018-04-01T05:32:59.665Z,23.50
2018-04-01T05:34:03.073Z,17.00
2018-04-01T05:35:05.923Z,18.00
2018-04-01T05:36:08.863Z,16.00
2018-04-01T05:37:11.741Z,17.50
2018-04-01T05:38:14.472Z,20.00
2018-04-01T05:39:18.742Z,17.50
2018-04-01T05:40:22.040Z,25.50
2018-04-01T05:41:25.177Z,18.00
2018-04-01T05:42:27.987Z,22.50
2018-04-01T05:43:30.885Z,22.00
2018-04-01T05:44:33.988Z,19.50
2018-04-01T05:45:37.132Z,23.50
2018-04-01T05:46:40.534Z,24.50
2018-04-01T05:47:43.537Z,27.50
2018-04-01T05:48:46.765Z,27.00
2018-04-01T05:49:50.190Z,23.00
2018-04-01T05:50:53.346Z,30.50
2018-04-01T05:51:56.583Z,24.00
2018-04-01T05:52:59.747Z,17.50
2018-04-01T05:54:03.091Z,27.00
2018-04-01T05:55:06.222Z,24.50
2018-04-01T05:56:09.188Z,21.00
2018-04-01T05:57:12.312Z,24.00
2018-04-01T05:58:15.140Z,24.00
2018-04-01T05:59:18.689Z,19.00
2018-04-01T06:00:22.970Z,33.00
2018-04-01T06:01:26.177Z,21.00
2018-04-01T06:02:29.122Z,14.50
2018-04-01T06:03:32.303Z,19.50
2018-04-01T06:04:35.564Z,20.50
2018-04-01T06:05:38.529Z,12.50
2018-04-01T06:06:42.057Z,21.00
2018-04-01T06:07:45.290Z,21.00
2018-04-01T06:08:48.487Z,24.50
2018-04-01T06:09:51.732Z,28.00
2018-04-01T06:10:54.883Z,22.50
2018-04-01T06:11:58.615Z,22.00
2018-04-01T06:13:01.573Z,24.50
2018-04-01T06:14:04.497Z,22.00
2018-04-01T06:15:07.797Z,22.00
2018-04-01T06:16:11.325Z,30.00
2018-04-01T06:17:14.755Z,22.00
2018-04-01T06:18:18.016Z,15.00
2018-04-01T06:19:21.294Z,19.50
2018-04-01T06:20:24.212Z,24.00
2018-04-01T06:21:27.792Z,25.50
2018-04-01T06:22:31.199Z,18.50
2018-04-01T06:23:34.362Z,23.00
2018-04-01T06:24:38.027Z,26.50
2018-04-01T06:25:41.347Z,26.50
2018-04-01T06:26:44.415Z,28.00
2018-04-01T06:27:47.698Z,27.00
2018-04-01T06:28:50.939Z,18.00
2018-04-01T06:29:53.886Z,19.00
2018-04-01T06:30:57.525Z,33.50
2018-04-01T06:32:00.822Z,15.00
2018-04-01T06:33:04.346Z,19.00
2018-04-01T06:34:07.554Z,25.50
2018-04-01T06:35:10.734Z,26.50
2018-04-01T06:36:13.604Z,20.00
2018-04-01T06:37:17.967Z,28.50
2018-04-01T06:38:20.752Z,23.50
2018-04-01T06:39:23.736Z,22.00
2018-04-01T06:40:26.996Z,22.50
2018-04-01T06:41:31.140Z,21.00
2018-04-01T06:42:34.088Z,25.50
2018-04-01T06:43:37.239Z,23.50
2018-04-01T06:44:40.586Z,24.50
2018-04-01T06:45:44.298Z,24.50
2018-04-01T06:46:47.611Z,20.00
2018-04-01T06:47:50.574Z,24.00
2018-04-01T06:48:53.990Z,23.00
2018-04-01T06:49:57.143Z,25.50
2018-04-01T06:51:00.132Z,19.00
2018-04-01T06:52:03.153Z,17.50
2018-04-01T06:53:07.142Z,25.50
2018-04-01T06:54:10.430Z,25.50
2018-04-01T06:55:13.546Z,19.00
2018-04-01T06:56:16.688Z,19.50
2018-04-01T06:57:19.930Z,26.50
2018-04-01T06:58:23.293Z,23.00
2018-04-01T06:59:27.011Z,18.00
2018-04-01T07:00:30.151Z,18.50
2018-04-01T07:01:33.069Z,20.50
2018-04-01T07:02:36.498Z,21.00
2018-04-01T07:03:39.521Z,16.50
2018-04-01T07:04:42.773Z,13.50
2018-04-01T07:05:46.062Z,14.50
2018-04-01T07:06:49.666Z,19.00
2018-04-01T07:07:52.848Z,23.00
2018-04-01T07:08:55.984Z,24.50
2018-04-01T07:09:59.338Z,17.00
2018-04-01T07:11:02.556Z,17.00
2018-04-01T07:12:05.736Z,17.50
2018-04-01T07:13:08.964Z,16.00
2018-04-01T07:14:12.214Z,16.00
2018-04-01T07:15:16.145Z,23.00
2018-04-01T07:16:19.314Z,17.00
2018-04-01T07:17:23.498Z,18.00
2018-04-01T07:18:26.644Z,18.00
2018-04-01T07:19:30.172Z,17.50
2018-04-01T07:20:33.266Z,15.00
2018-04-01T07:21:36.421Z,19.00
2018-04-01T07:22:39.745Z,16.00
2018-04-01T07:23:42.814Z,15.50
2018-04-01T07:24:45.908Z,16.50
2018-04-01T07:25:49.438Z,17.00
2018-04-01T07:26:52.768Z,17.50
2018-04-01T07:27:55.827Z,20.50
2018-04-01T07:28:59.077Z,24.50
2018-04-01T07:30:04.212Z,27.50
2018-04-01T07:31:08.056Z,23.00
2018-04-01T07:32:11.483Z,22.50
2018-04-01T07:33:14.674Z,21.00
2018-04-01T07:34:17.870Z,25.50
2018-04-01T07:35:21.942Z,18.50
2018-04-01T07:36:25.054Z,21.00
2018-04-01T07:37:28.571Z,25.00
2018-04-01T07:38:32.601Z,26.00
2018-04-01T07:39:36.029Z,19.50
2018-04-01T07:40:39.220Z,17.50
2018-04-01T07:41:42.577Z,19.00
2018-04-01T07:42:45.712Z,23.00
2018-04-01T07:43:48.870Z,17.50
2018-04-01T07:44:52.068Z,17.50
2018-04-01T07:45:55.750Z,23.50
2018-04-01T07:46:58.829Z,19.00
2018-04-01T07:48:02.087Z,15.50
2018-04-01T07:49:05.543Z,22.00
2018-04-01T07:50:08.616Z,18.50
2018-04-01T07:51:12.089Z,19.00
2018-04-01T07:52:15.587Z,29.00
2018-04-01T07:53:18.679Z,27.00
2018-04-01T07:54:21.791Z,24.50
2018-04-01T07:55:25.139Z,18.00
2018-04-01T07:56:28.108Z,25.50
2018-04-01T07:57:31.868Z,21.50
2018-04-01T07:58:35.571Z,27.00
2018-04-01T07:59:38.458Z,23.00
2018-04-01T08:00:42.705Z,22.50
2018-04-01T08:01:45.951Z,19.50
2018-04-01T08:02:49.165Z,24.00
2018-04-01T08:03:52.453Z,27.50
2018-04-01T08:04:55.677Z,31.00
2018-04-01T08:05:58.632Z,21.50
2018-04-01T08:07:01.910Z,18.00
2018-04-01T08:08:04.995Z,28.00
2018-04-01T08:09:08.005Z,23.00
2018-04-01T08:10:11.333Z,24.00
2018-04-01T08:11:14.548Z,27.00
2018-04-01T08:12:17.652Z,26.50
2018-04-01T08:13:20.834Z,23.00
2018-04-01T08:14:23.993Z,23.50
2018-04-01T08:15:28.920Z,29.50
2018-04-01T08:16:32.335Z,23.50
2018-04-01T08:17:35.252Z,28.00
2018-04-01T08:18:38.947Z,28.50
2018-04-01T08:19:42.168Z,27.50
2018-04-01T08:20:45.218Z,24.00
2018-04-01T08:21:48.362Z,26.50
2018-04-01T08:22:51.675Z,29.00
2018-04-01T08:23:54.906Z,17.00
2018-04-01T08:24:58.149Z,30.00
2018-04-01T08:26:01.150Z,26.00
2018-04-01T08:27:04.432Z,26.50
2018-04-01T08:28:07.864Z,27.00
2018-04-01T08:29:11.049Z,23.50
2018-04-01T08:30:15.566Z,29.00
2018-04-01T08:31:18.690Z,23.00
2018-04-01T08:32:21.930Z,27.50
2018-04-01T08:33:24.964Z,22.00
2018-04-01T08:34:28.335Z,27.00
2018-04-01T08:35:32.954Z,29.50
2018-04-01T08:36:36.035Z,26.50
2018-04-01T08:37:39.023Z,23.00
2018-04-01T08:38:41.993Z,29.50
2018-04-01T08:39:45.012Z,27.00
2018-04-01T08:40:48.291Z,30.00
2018-04-01T08:41:51.596Z,28.50
2018-04-01T08:42:54.527Z,27.00
2018-04-01T08:43:57.584Z,26.00
2018-04-01T08:45:00.822Z,19.50
2018-04-01T08:46:05.797Z,27.50
2018-04-01T08:47:08.815Z,24.50
2018-04-01T08:48:12.199Z,30.50
2018-04-01T08:49:15.221Z,28.00
2018-04-01T08:50:18.282Z,27.50
2018-04-01T08:51:21.505Z,25.00
2018-04-01T08:52:24.537Z,31.50
2018-04-01T08:53:27.465Z,25.50
2018-04-01T08:54:30.482Z,23.50
2018-04-01T08:55:33.557Z,29.50
2018-04-01T08:56:37.651Z,27.00
2018-04-01T08:57:40.631Z,21.50
2018-04-01T08:58:43.868Z,30.50
2018-04-01T08:59:47.006Z,21.00
2018-04-01T09:00:50.807Z,35.00
2018-04-01T09:01:53.858Z,24.00
2018-04-01T09:02:56.845Z,14.50
2018-04-01T09:03:59.919Z,25.50
2018-04-01T09:05:03.338Z,22.50
2018-04-01T09:06:06.926Z,22.50
2018-04-01T09:07:09.999Z,19.00
2018-04-01T09:08:13.119Z,26.00
2018-04-01T09:09:16.217Z,24.50
2018-04-01T09:10:19.269Z,24.00
2018-04-01T09:11:22.638Z,22.50
2018-04-01T09:12:25.713Z,22.50
2018-04-01T09:13:28.860Z,20.50
2018-04-01T09:14:32.058Z,28.50
2018-04-01T09:15:35.509Z,28.00
2018-04-01T09:16:38.730Z,21.50
2018-04-01T09:17:42.459Z,27.00
2018-04-01T09:18:45.605Z,22.00
2018-04-01T09:19:48.730Z,26.50
2018-04-01T09:20:51.790Z,34.00
2018-04-01T09:21:54.976Z,32.50
2018-04-01T09:22:58.198Z,34.50
2018-04-01T09:24:01.457Z,32.00
2018-04-01T09:25:04.651Z,25.00
2018-04-01T09:26:07.950Z,32.00
2018-04-01T09:27:11.195Z,28.50
2018-04-01T09:28:14.470Z,36.00
2018-04-01T09:29:17.575Z,30.00
2018-04-01T09:30:21.418Z,29.00
2018-04-01T09:31:24.428Z,23.50
2018-04-01T09:32:27.586Z,28.50
2018-04-01T09:33:30.704Z,30.00
2018-04-01T09:34:33.811Z,22.00
2018-04-01T09:35:36.999Z,29.00
2018-04-01T09:36:40.346Z,22.00
2018-04-01T09:37:44.189Z,20.00
2018-04-01T09:38:47.868Z,34.50
2018-04-01T09:39:51.322Z,22.00
2018-04-01T09:40:55.061Z,20.50
2018-04-01T09:41:58.270Z,29.00
2018-04-01T09:43:01.785Z,24.00
2018-04-01T09:44:05.005Z,27.50
2018-04-01T09:45:07.937Z,26.50
2018-04-01T09:46:11.153Z,34.00
2018-04-01T09:47:14.161Z,28.50
2018-04-01T09:48:17.290Z,24.50
2018-04-01T09:49:20.483Z,21.50
2018-04-01T09:50:23.498Z,28.00
2018-04-01T09:51:26.465Z,28.50
2018-04-01T09:52:29.478Z,33.50
2018-04-01T09:53:32.630Z,25.50
2018-04-01T09:54:35.744Z,31.00
2018-04-01T09:55:38.950Z,28.00
2018-04-01T09:56:42.053Z,32.50
2018-04-01T09:57:45.050Z,27.50
2018-04-01T09:58:48.055Z,28.00
2018-04-01T09:59:51.864Z,27.50
2018-04-01T10:01:01.513Z,35.00
2018-04-01T10:02:06.212Z,23.00
2018-04-01T10:03:10.982Z,27.50
2018-04-01T10:04:15.665Z,22.50
2018-04-01T10:05:20.358Z,24.50
2018-04-01T10:06:25.473Z,21.50
2018-04-01T10:07:30.668Z,28.50
2018-04-01T10:08:35.333Z,26.50
2018-04-01T10:09:39.977Z,28.50
2018-04-01T10:10:45.081Z,25.00
2018-04-01T10:11:50.735Z,25.50
2018-04-01T10:12:56.308Z,26.00
2018-04-01T10:14:01.774Z,23.00
2018-04-01T10:15:07.358Z,23.00
2018-04-01T10:16:12.379Z,28.50
2018-04-01T10:17:17.089Z,25.00
2018-04-01T10:18:21.968Z,23.00
2018-04-01T10:19:26.595Z,26.50
2018-04-01T10:20:31.346Z,24.00
2018-04-01T10:21:36.205Z,18.00
2018-04-01T10:22:40.968Z,26.50
2018-04-01T10:23:45.648Z,27.00
2018-04-01T10:24:50.523Z,27.50
2018-04-01T10:25:56.010Z,23.50
2018-04-01T10:27:00.781Z,23.50
2018-04-01T10:28:05.591Z,26.00
2018-04-01T10:29:10.282Z,20.00
2018-04-01T10:30:17.091Z,28.50
2018-04-01T10:31:21.850Z,30.50
2018-04-01T10:32:27.499Z,28.50
2018-04-01T10:33:32.644Z,23.50
2018-04-01T10:34:37.737Z,22.00
2018-04-01T10:35:42.797Z,22.00
2018-04-01T10:36:47.693Z,19.00
2018-04-01T10:37:52.314Z,29.00
2018-04-01T10:38:57.517Z,26.50
2018-04-01T10:40:03.360Z,27.00
2018-04-01T10:41:08.869Z,29.00
2018-04-01T10:42:13.818Z,28.00
2018-04-01T10:43:18.727Z,25.00
2018-04-01T10:44:23.300Z,27.50
2018-04-01T10:45:29.416Z,34.00
2018-04-01T10:46:34.589Z,27.50
2018-04-01T10:47:39.277Z,28.50
2018-04-01T10:48:43.907Z,31.00
2018-04-01T10:49:48.453Z,31.50
2018-04-01T10:50:53.643Z,26.50
2018-04-01T10:51:59.206Z,26.00
2018-04-01T10:53:04.892Z,33.00
2018-04-01T10:54:07.967Z,22.00
2018-04-01T10:55:11.240Z,29.00
2018-04-01T10:56:14.632Z,29.50
2018-04-01T10:57:17.584Z,27.00
2018-04-01T10:58:20.605Z,26.00
2018-04-01T10:59:23.528Z,31.50
2018-04-01T11:00:26.911Z,25.50
2018-04-01T11:01:29.837Z,26.50
2018-04-01T11:02:33.003Z,26.00
2018-04-01T11:03:36.040Z,27.00
2018-04-01T11:04:39.019Z,29.00
2018-04-01T11:05:42.136Z,25.00
2018-04-01T11:06:45.377Z,23.50
2018-04-01T11:07:48.384Z,27.50
2018-04-01T11:08:51.698Z,29.50
2018-04-01T11:09:54.757Z,24.00
2018-04-01T11:10:58.528Z,30.50
2018-04-01T11:12:01.551Z,28.00
2018-04-01T11:13:05.348Z,21.00
2018-04-01T11:14:08.434Z,26.50
2018-04-01T11:15:13.611Z,27.00
2018-04-01T11:16:16.608Z,20.00
2018-04-01T11:17:19.769Z,24.00
2018-04-01T11:18:22.885Z,22.50
2018-04-01T11:19:25.873Z,24.00
2018-04-01T11:20:29.037Z,25.00
2018-04-01T11:21:32.353Z,25.00
2018-04-01T11:22:35.585Z,18.50
2018-04-01T11:23:38.647Z,23.00
2018-04-01T11:24:41.552Z,23.00
2018-04-01T11:25:44.751Z,24.50
2018-04-01T11:26:47.835Z,27.50
2018-04-01T11:27:51.144Z,27.00
2018-04-01T11:28:54.187Z,25.00
2018-04-01T11:29:57.104Z,22.00
2018-04-01T11:31:00.340Z,30.00
2018-04-01T11:32:03.444Z,30.50
2018-04-01T11:33:06.447Z,24.50
2018-04-01T11:34:09.553Z,22.50
2018-04-01T11:35:12.504Z,26.50
2018-04-01T11:36:15.742Z,23.50
2018-04-01T11:37:18.655Z,23.50
2018-04-01T11:38:21.706Z,22.50
2018-04-01T11:39:24.635Z,29.50
2018-04-01T11:40:27.611Z,28.00
2018-04-01T11:41:30.529Z,28.50
2018-04-01T11:42:33.559Z,22.50
2018-04-01T11:43:36.528Z,21.50
2018-04-01T11:44:39.588Z,27.50
2018-04-01T11:45:42.864Z,22.50
2018-04-01T11:46:46.207Z,25.50
2018-04-01T11:47:49.221Z,24.50
2018-04-01T11:48:52.218Z,24.50
2018-04-01T11:49:55.293Z,26.00
2018-04-01T11:50:59.426Z,22.50
2018-04-01T11:52:02.424Z,25.00
2018-04-01T11:53:06.317Z,26.50
2018-04-01T11:54:09.312Z,21.50
2018-04-01T11:55:12.266Z,25.50
2018-04-01T11:56:15.235Z,28.50
2018-04-01T11:57:18.160Z,26.50
2018-04-01T11:58:20.984Z,27.50
2018-04-01T11:59:24.423Z,24.50
2018-04-01T12:00:27.773Z,34.50
2018-04-01T12:01:30.965Z,27.00
2018-04-01T12:02:33.899Z,27.50
2018-04-01T12:03:37.032Z,28.00
2018-04-01T12:04:40.044Z,28.00
2018-04-01T12:05:43.404Z,27.50
2018-04-01T12:06:46.485Z,26.00
2018-04-01T12:07:49.520Z,31.00
2018-04-01T12:08:52.460Z,23.50
2018-04-01T12:09:55.505Z,25.00
2018-04-01T12:10:58.556Z,28.00
2018-04-01T12:12:02.027Z,29.00
2018-04-01T12:13:05.665Z,27.50
2018-04-01T12:14:08.759Z,22.50
2018-04-01T12:15:16.997Z,30.50
2018-04-01T12:16:20.379Z,28.50
2018-04-01T12:17:23.788Z,21.50
2018-04-01T12:18:27.317Z,29.50
2018-04-01T12:19:30.549Z,26.00
2018-04-01T12:20:33.663Z,23.50
2018-04-01T12:21:36.776Z,22.50
2018-04-01T12:22:39.806Z,27.50
2018-04-01T12:23:42.908Z,26.00
2018-04-01T12:24:46.256Z,22.00
2018-04-01T12:25:49.250Z,20.50
2018-04-01T12:26:52.465Z,30.50
2018-04-01T12:27:55.523Z,25.50
2018-04-01T12:28:58.615Z,30.00
2018-04-01T12:30:03.504Z,27.00
2018-04-01T12:31:06.730Z,30.50
2018-04-01T12:32:09.711Z,24.50
2018-04-01T12:33:12.720Z,28.50
2018-04-01T12:34:15.791Z,24.50
2018-04-01T12:35:18.820Z,31.00
2018-04-01T12:36:22.588Z,31.00
2018-04-01T12:37:25.510Z,26.00
2018-04-01T12:38:28.474Z,22.00
2018-04-01T12:39:31.322Z,26.50
2018-04-01T12:40:34.387Z,26.00
2018-04-01T12:41:37.681Z,28.50
2018-04-01T12:42:40.666Z,30.00
2018-04-01T12:43:43.627Z,26.00
2018-04-01T12:44:46.594Z,29.00
2018-04-01T12:45:49.995Z,32.50
2018-04-01T12:46:52.989Z,26.00
2018-04-01T12:47:56.350Z,29.00
2018-04-01T12:48:59.985Z,27.50
2018-04-01T12:50:02.912Z,27.50
2018-04-01T12:51:05.883Z,28.00
2018-04-01T12:52:09.575Z,21.50
2018-04-01T12:53:12.665Z,28.50
2018-04-01T12:54:16.130Z,29.00
2018-04-01T12:55:19.037Z,23.50
2018-04-01T12:56:21.944Z,24.00
2018-04-01T12:57:25.010Z,25.50
2018-04-01T12:58:27.949Z,27.50
2018-04-01T12:59:31.383Z,28.00
2018-04-01T13:00:34.387Z,35.50
2018-04-01T13:01:37.520Z,31.00
2018-04-01T13:02:40.591Z,31.00
2018-04-01T13:03:43.640Z,25.00
2018-04-01T13:04:46.622Z,27.00
2018-04-01T13:05:49.585Z,26.00
2018-04-01T13:06:52.566Z,29.00
2018-04-01T13:07:55.597Z,27.50
2018-04-01T13:08:58.477Z,27.00
2018-04-01T13:10:01.560Z,20.00
2018-04-01T13:11:04.540Z,33.00
2018-04-01T13:12:08.530Z,24.00
2018-04-01T13:13:11.485Z,25.50
2018-04-01T13:14:14.702Z,24.00
2018-04-01T13:15:18.120Z,23.50
2018-04-01T13:16:21.134Z,25.00
2018-04-01T13:17:24.840Z,19.50
2018-04-01T13:18:28.009Z,22.50
2018-04-01T13:19:31.572Z,23.50
2018-04-01T13:20:34.498Z,23.00
2018-04-01T13:21:37.414Z,22.50
2018-04-01T13:22:40.275Z,19.00
2018-04-01T13:23:43.682Z,18.50
2018-04-01T13:24:46.596Z,25.00
2018-04-01T13:25:49.557Z,22.00
2018-04-01T13:26:52.564Z,22.00
2018-04-01T13:27:55.550Z,19.00
2018-04-01T13:30:19.814Z,56.00
2018-04-01T13:31:22.709Z,22.50
2018-04-01T13:32:25.632Z,20.50
2018-04-01T13:33:28.554Z,21.50
2018-04-01T13:34:31.420Z,20.00
2018-04-01T13:35:35.106Z,22.00
2018-04-01T13:36:38.073Z,22.50